createdAt,value
2022-10-06T00:00:46.027Z,1.45
2022-10-06T00:04:48.071Z,1.70
2022-10-06T00:08:50.113Z,1.67
2022-10-06T00:12:52.662Z,1.65
2022-10-06T00:16:54.736Z,1.70
2022-10-06T00:20:58.924Z,1.90
2022-10-06T00:25:01.273Z,1.50
2022-10-06T00:29:03.852Z,1.80
2022-10-06T00:33:05.865Z,1.75
2022-10-06T00:37:07.869Z,2.00
2022-10-06T00:41:13.872Z,1.70
2022-10-06T00:45:17.205Z,1.77
2022-10-06T00:49:37.994Z,1.77
2022-10-06T00:53:40.891Z,1.98
2022-10-06T00:57:43.441Z,1.88
2022-10-06T01:01:53.843Z,1.52
2022-10-06T01:05:57.173Z,1.50
2022-10-06T01:09:59.486Z,1.70
2022-10-06T01:14:01.534Z,1.70
2022-10-06T01:18:09.668Z,1.70
2022-10-06T01:22:15.594Z,1.70
2022-10-06T01:26:20.481Z,1.65
2022-10-06T01:30:29.900Z,1.00
2022-10-06T01:34:32.039Z,0.57
2022-10-06T01:38:34.307Z,0.55
2022-10-06T01:42:38.964Z,0.40
2022-10-06T01:46:41.246Z,0.30
2022-10-06T01:50:44.293Z,0.40
2022-10-06T01:54:46.403Z,0.30
2022-10-06T01:58:48.812Z,0.30
2022-10-06T02:02:51.027Z,0.57
2022-10-06T02:06:55.382Z,0.40
2022-10-06T02:10:57.488Z,0.20
2022-10-06T02:15:01.757Z,0.40
2022-10-06T02:19:04.625Z,0.32
2022-10-06T02:23:06.663Z,0.30
2022-10-06T02:27:08.729Z,0.30
2022-10-06T02:31:12.525Z,0.30
2022-10-06T02:35:15.509Z,0.30
2022-10-06T02:39:19.096Z,0.22
2022-10-06T02:43:22.029Z,0.30
2022-10-06T02:47:24.193Z,0.40
2022-10-06T02:51:26.426Z,0.20
2022-10-06T02:55:31.157Z,0.30
2022-10-06T02:59:35.860Z,0.45
2022-10-06T03:03:40.821Z,1.00
2022-10-06T03:07:42.888Z,7.30
2022-10-06T03:11:45.660Z,0.73
2022-10-06T03:16:18.057Z,0.20
2022-10-06T03:20:20.743Z,0.43
2022-10-06T03:24:22.892Z,0.28
2022-10-06T03:28:30.456Z,0.30
2022-10-06T03:32:32.742Z,0.40
2022-10-06T03:36:36.164Z,0.40
2022-10-06T03:40:38.320Z,0.60
2022-10-06T03:44:40.492Z,0.32
2022-10-06T03:48:43.228Z,0.40
2022-10-06T03:52:45.328Z,0.35
2022-10-06T03:56:47.546Z,0.65
2022-10-06T04:00:49.647Z,0.30
2022-10-06T04:04:51.832Z,0.40
2022-10-06T04:08:55.171Z,0.40
2022-10-06T04:12:57.645Z,0.40
2022-10-06T04:17:01.474Z,0.28
2022-10-06T04:21:07.803Z,0.50
2022-10-06T04:25:10.076Z,0.30
2022-10-06T04:29:13.017Z,0.38
2022-10-06T04:33:15.815Z,0.38
2022-10-06T04:37:18.311Z,0.47
2022-10-06T04:41:21.013Z,0.52
2022-10-06T04:45:23.189Z,0.20
2022-10-06T04:49:25.307Z,0.40
2022-10-06T04:53:29.889Z,0.47
2022-10-06T04:57:32.604Z,0.40
2022-10-06T05:01:36.934Z,0.52
2022-10-06T05:05:43.294Z,0.57
2022-10-06T05:09:45.637Z,0.45
2022-10-06T05:13:49.514Z,0.40
2022-10-06T05:17:51.706Z,0.50
2022-10-06T05:21:53.775Z,0.63
2022-10-06T05:26:00.269Z,0.80
2022-10-06T05:30:03.214Z,0.60
2022-10-06T05:34:06.030Z,0.57
2022-10-06T05:38:11.650Z,0.70
2022-10-06T05:42:13.983Z,0.93
2022-10-06T05:46:25.139Z,0.70
2022-10-06T05:50:29.254Z,0.93
2022-10-06T05:54:31.793Z,1.08
2022-10-06T05:58:36.021Z,1.20
2022-10-06T06:02:38.392Z,1.08
2022-10-06T06:06:45.673Z,1.35
2022-10-06T06:10:51.501Z,0.90
2022-10-06T06:15:12.251Z,0.70
2022-10-06T06:19:19.138Z,1.00
2022-10-06T06:23:21.754Z,1.42
2022-10-06T06:27:24.690Z,1.05
2022-10-06T06:31:29.783Z,1.00
2022-10-06T06:35:31.902Z,0.75
2022-10-06T06:39:34.749Z,1.73
2022-10-06T06:43:36.838Z,1.42
2022-10-06T06:47:57.958Z,1.00
2022-10-06T06:52:00.009Z,1.40
2022-10-06T06:56:05.068Z,1.15
2022-10-06T07:00:09.527Z,1.38
2022-10-06T07:04:15.803Z,0.88
2022-10-06T07:08:20.551Z,1.40
2022-10-06T07:12:25.316Z,1.08
2022-10-06T07:16:51.128Z,1.05
2022-10-06T07:21:12.731Z,1.73
2022-10-06T07:25:26.033Z,1.50
2022-10-06T07:29:40.559Z,1.67
2022-10-06T07:33:43.170Z,1.25
2022-10-06T07:37:45.497Z,1.48
2022-10-06T07:41:47.658Z,1.23
2022-10-06T07:45:50.041Z,1.73
2022-10-06T07:50:12.975Z,1.50
2022-10-06T07:54:15.211Z,1.38
2022-10-06T07:58:37.348Z,1.10
2022-10-06T08:02:39.845Z,0.93
2022-10-06T08:06:42.202Z,1.30
2022-10-06T08:10:52.802Z,1.42
2022-10-06T08:14:55.086Z,1.10
2022-10-06T08:18:59.213Z,1.48
2022-10-06T08:23:01.307Z,1.50
2022-10-06T08:27:03.380Z,1.02
2022-10-06T08:31:12.496Z,1.13
2022-10-06T08:35:14.629Z,1.38
2022-10-06T08:39:18.051Z,1.50
2022-10-06T08:43:23.090Z,1.27
2022-10-06T08:47:28.986Z,1.30
2022-10-06T08:51:57.210Z,1.27
2022-10-06T08:56:18.231Z,1.35
2022-10-06T09:00:22.201Z,1.27
2022-10-06T09:04:29.077Z,1.05
2022-10-06T09:09:03.506Z,1.08
2022-10-06T09:13:08.839Z,1.00
2022-10-06T09:17:15.914Z,1.17
2022-10-06T09:21:30.267Z,1.45
2022-10-06T09:25:33.494Z,1.42
2022-10-06T09:29:35.485Z,1.13
2022-10-06T09:33:39.764Z,1.17
2022-10-06T09:38:00.127Z,1.00
2022-10-06T09:42:10.350Z,1.05
2022-10-06T09:46:28.312Z,1.42
2022-10-06T09:50:30.304Z,1.05
2022-10-06T09:54:34.497Z,1.30
2022-10-06T09:58:39.134Z,1.55
2022-10-06T10:02:41.339Z,1.25
2022-10-06T10:06:43.510Z,1.20
2022-10-06T10:10:45.554Z,1.00
2022-10-06T10:14:48.148Z,1.48
2022-10-06T10:18:51.303Z,1.40
2022-10-06T10:22:54.976Z,1.55
2022-10-06T10:27:09.028Z,1.50
2022-10-06T10:31:16.022Z,1.38
2022-10-06T10:35:30.508Z,1.10
2022-10-06T10:39:54.689Z,1.25
2022-10-06T10:44:08.736Z,1.73
2022-10-06T10:48:21.021Z,1.20
2022-10-06T10:52:28.993Z,1.48
2022-10-06T10:56:33.576Z,1.17
2022-10-06T11:00:41.155Z,1.30
2022-10-06T11:04:47.157Z,0.90
2022-10-06T11:09:11.049Z,1.00
2022-10-06T11:13:23.068Z,1.30
2022-10-06T11:17:44.177Z,0.73
2022-10-06T11:21:52.971Z,0.75
2022-10-06T11:26:13.696Z,0.95
2022-10-06T11:30:19.635Z,0.75
2022-10-06T11:34:21.696Z,0.52
2022-10-06T11:38:37.850Z,0.60
2022-10-06T11:42:55.818Z,0.80
2022-10-06T11:47:06.195Z,1.10
2022-10-06T11:51:17.424Z,0.63
2022-10-06T11:55:23.782Z,0.95
2022-10-06T11:59:28.455Z,0.60
2022-10-06T12:03:33.382Z,0.75
2022-10-06T12:07:54.213Z,0.70
2022-10-06T12:11:59.357Z,1.08
2022-10-06T12:21:09.845Z,2.28
2022-10-06T12:25:52.122Z,1.00
2022-10-06T12:30:22.669Z,1.00
2022-10-06T12:34:57.258Z,0.98
2022-10-06T12:39:05.941Z,0.93
2022-10-06T12:43:20.907Z,0.95
2022-10-06T12:47:32.426Z,0.75
2022-10-06T12:51:45.863Z,0.60
2022-10-06T12:55:52.650Z,0.93
2022-10-06T12:59:54.680Z,0.60
2022-10-06T13:03:56.718Z,0.60
2022-10-06T13:08:35.143Z,1.17
2022-10-06T13:12:38.183Z,0.70
2022-10-06T13:16:45.828Z,0.57
2022-10-06T13:20:53.517Z,0.90
2022-10-06T13:25:01.556Z,0.93
2022-10-06T13:29:03.713Z,0.70
2022-10-06T13:33:07.335Z,0.63
2022-10-06T13:41:26.776Z,0.85
2022-10-06T13:45:29.011Z,0.68
2022-10-06T13:49:58.735Z,0.52
2022-10-06T13:54:23.803Z,0.85
2022-10-06T13:58:29.881Z,0.60
2022-10-06T14:02:36.393Z,0.75
2022-10-06T14:06:44.638Z,0.98
2022-10-06T14:10:50.688Z,0.98
2022-10-06T14:14:53.132Z,0.60
2022-10-06T14:19:00.556Z,0.90
2022-10-06T14:23:02.583Z,0.60
2022-10-06T14:27:06.685Z,0.80
2022-10-06T14:31:14.141Z,0.63
2022-10-06T14:35:16.566Z,0.88
2022-10-06T14:39:19.187Z,0.75
2022-10-06T14:43:21.313Z,1.00
2022-10-06T14:47:23.324Z,0.80
2022-10-06T14:51:27.069Z,0.63
2022-10-06T14:55:30.738Z,0.52
2022-10-06T14:59:33.016Z,0.82
2022-10-06T15:03:36.344Z,0.55
2022-10-06T15:07:57.072Z,0.60
2022-10-06T15:11:59.967Z,0.70
2022-10-06T15:16:02.082Z,0.77
2022-10-06T15:20:04.463Z,1.70
2022-10-06T15:24:08.050Z,1.17
2022-10-06T15:28:31.705Z,0.70
2022-10-06T15:32:33.738Z,0.90
2022-10-06T15:36:37.529Z,1.67
2022-10-06T15:40:39.522Z,0.80
2022-10-06T15:44:41.509Z,0.77
2022-10-06T15:48:44.329Z,0.90
2022-10-06T15:52:46.541Z,0.70
2022-10-06T15:56:53.207Z,0.80
2022-10-06T16:00:55.226Z,1.10
2022-10-06T16:05:17.518Z,0.70
2022-10-06T16:09:19.746Z,0.70
2022-10-06T16:13:21.714Z,0.50
2022-10-06T16:17:23.678Z,1.60
2022-10-06T16:21:25.701Z,1.40
2022-10-06T16:25:27.739Z,1.13
2022-10-06T16:29:29.887Z,1.20
2022-10-06T16:33:31.929Z,1.40
2022-10-06T16:37:34.061Z,1.50
2022-10-06T16:41:36.090Z,0.88
2022-10-06T16:45:38.095Z,1.00
2022-10-06T16:49:40.187Z,4.70
2022-10-06T16:53:50.583Z,8.43
2022-10-06T16:57:52.589Z,1.85
2022-10-06T17:01:54.567Z,1.35
2022-10-06T17:06:01.888Z,0.90
2022-10-06T17:14:23.430Z,2.70
2022-10-06T17:18:25.560Z,2.50
2022-10-06T17:22:27.652Z,2.03
2022-10-06T17:26:32.569Z,1.55
2022-10-06T17:30:34.621Z,1.80
2022-10-06T17:34:36.642Z,1.67
2022-10-06T17:38:41.924Z,1.30
2022-10-06T17:42:43.971Z,1.42
2022-10-06T17:46:46.128Z,1.50
2022-10-06T17:50:57.400Z,4.43
2022-10-06T17:54:59.410Z,2.92
2022-10-06T17:59:07.571Z,1.30
2022-10-06T18:03:09.596Z,1.55
2022-10-06T18:07:11.614Z,1.63
2022-10-06T18:11:35.429Z,1.30
2022-10-06T18:15:37.642Z,1.70
2022-10-06T18:19:39.663Z,1.63
2022-10-06T18:23:43.490Z,2.05
2022-10-06T18:27:47.562Z,2.15
2022-10-06T18:31:51.846Z,1.83
2022-10-06T18:36:14.618Z,1.98
2022-10-06T18:40:17.309Z,1.83
2022-10-06T18:44:39.336Z,1.52
2022-10-06T18:49:00.018Z,1.75
2022-10-06T18:53:04.121Z,1.90
2022-10-06T18:57:06.144Z,2.20
2022-10-06T19:01:08.325Z,2.28
2022-10-06T19:05:10.419Z,2.20
2022-10-06T19:09:17.333Z,2.95
2022-10-06T19:13:20.276Z,2.28
2022-10-06T19:17:24.241Z,1.60
2022-10-06T19:21:27.448Z,1.30
2022-10-06T19:25:30.029Z,1.90
2022-10-06T19:29:36.949Z,2.15
2022-10-06T19:33:39.705Z,2.65
2022-10-06T19:37:42.106Z,2.38
2022-10-06T19:42:03.068Z,2.35
2022-10-06T19:46:05.188Z,2.47
2022-10-06T19:50:12.096Z,2.53
2022-10-06T19:54:17.520Z,1.98
2022-10-06T19:58:19.524Z,2.13
2022-10-06T20:02:21.573Z,2.25
2022-10-06T20:06:23.961Z,2.10
2022-10-06T20:10:26.089Z,2.15
2022-10-06T20:14:29.004Z,2.10
2022-10-06T20:18:36.224Z,1.85
2022-10-06T20:22:38.248Z,1.98
2022-10-06T20:26:43.128Z,1.83
2022-10-06T20:30:50.014Z,2.45
2022-10-06T20:34:52.657Z,2.30
2022-10-06T20:39:13.863Z,2.38
2022-10-06T20:43:15.921Z,2.10
2022-10-06T20:47:18.006Z,2.60
2022-10-06T20:51:23.134Z,2.28
2022-10-06T20:55:28.980Z,2.92
2022-10-06T20:59:31.837Z,3.00
2022-10-06T21:03:35.124Z,2.30
2022-10-06T21:07:37.309Z,2.70
2022-10-06T21:11:39.824Z,2.67
2022-10-06T21:15:45.692Z,2.50
2022-10-06T21:19:47.966Z,2.30
2022-10-06T21:23:50.313Z,2.45
2022-10-06T21:27:52.497Z,2.53
2022-10-06T21:31:55.520Z,2.60
2022-10-06T21:35:59.890Z,2.33
2022-10-06T21:40:02.685Z,3.05
2022-10-06T21:44:09.441Z,2.30
2022-10-06T21:48:11.666Z,2.97
2022-10-06T21:52:13.860Z,3.45
2022-10-06T21:56:16.329Z,2.60
2022-10-06T22:00:18.621Z,2.20
2022-10-06T22:04:20.806Z,2.00
2022-10-06T22:08:23.044Z,2.20
2022-10-06T22:12:25.234Z,2.38
2022-10-06T22:16:30.860Z,2.47
2022-10-06T22:20:34.451Z,4.28
2022-10-06T22:24:36.629Z,3.25
2022-10-06T22:28:40.211Z,2.75
2022-10-06T22:32:42.562Z,2.78
2022-10-06T22:36:45.034Z,2.70
2022-10-06T22:40:47.196Z,3.05
2022-10-06T22:44:49.369Z,2.40
2022-10-06T22:48:51.590Z,2.00
2022-10-06T22:52:53.792Z,2.20
2022-10-06T22:56:56.992Z,2.22
2022-10-06T23:01:08.571Z,2.17
2022-10-06T23:05:10.830Z,2.05
2022-10-06T23:09:13.085Z,1.85
2022-10-06T23:13:15.296Z,1.90
2022-10-06T23:17:17.491Z,1.85
2022-10-06T23:21:22.537Z,1.60
2022-10-06T23:25:27.248Z,1.95
2022-10-06T23:29:30.800Z,1.52
2022-10-06T23:33:33.945Z,1.30
2022-10-06T23:37:37.833Z,1.25
2022-10-06T23:41:41.656Z,1.23
2022-10-06T23:45:43.986Z,1.33
2022-10-06T23:49:46.249Z,1.48
2022-10-06T23:53:48.533Z,1.30
2022-10-06T23:57:50.709Z,1.42
